Latest Coastal Weather Observations for Port Augusta

IDS60701

Issued at 4:21 am CDT Sunday 29 March 2015 (issued every 10 minutes, with the page automatically refreshed every 10 minutes)

About coastal observations | Map of coastal stations | Coastal observations for SA | Marine services | Other Formats
Station Details ID: 018201 Name: PORT AUGUSTA AERO Lat: -32.51 Lon: 137.72 Height: 13.97 m
Data from the previous 72 hours. | See also: Recent months at Port Augusta
Date/Time
CDT
Temp

°C
Wind Pressure Rain
since 9am
mm
Weather Cloud Vis
km
Sea
Height
m
Swell
Dir
 
Speed
knots
Gust
knots
hPa Trend Height
m
Period
s
Dir
27/12:00pm 18.2 SSE 10 13 1028.8 - 0.0 - - 10 - - - -
27/11:30am 18.3 SSE 11 15 1029.3 - 0.0 - - 10 - - - -
27/11:00am 18.0 SE 10 13 1029.7 - 0.0 - - 10 - - - -
27/10:30am 17.0 SE 11 16 1029.8 - 0.0 - - 10 - - - -
27/10:00am 16.4 SE 8 11 1029.9 - 0.0 - - 10 - - - -
27/09:30am 16.3 ESE 7 10 1030.0 - 0.0 - - 10 - - - -
27/09:00am 15.2 SE 8 11 1029.7 - 0.0 - - 10 - - - -
27/08:30am 14.5 SE 7 9 1029.6 - 0.0 - - 10 - - - -
27/08:00am 12.8 SSE 9 11 1029.3 - 0.0 - - 10 - - - -
27/07:30am 12.6 SSE 10 11 1029.2 - 0.0 - - 10 - - - -
27/07:00am 12.4 SSE 10 11 1028.9 - 0.0 - - 10 - - - -
27/06:30am 12.2 SSE 9 11 1028.7 - 0.0 - Partly cloudy 10 - - - -
27/06:00am 11.8 SSE 9 11 1028.5 - 0.0 - - 10 - - - -
27/05:30am 11.9 SSE 9 11 1028.3 - 0.0 - - 10 - - - -
27/05:00am 13.3 SE 10 12 1028.1 - 0.0 - - 10 - - - -
27/04:30am 13.1 SSE 11 12 1028.0 - 0.0 - - 10 - - - -
27/04:00am 13.4 SSE 12 15 1027.9 - 0.0 - - 10 - - - -
27/03:30am 13.5 SSE 12 14 1027.9 - 0.0 - - 10 - - - -
27/03:00am 14.0 SE 13 17 1028.1 - 0.0 - - 10 - - - -
27/02:30am 13.8 SE 12 15 1028.4 - 0.0 - Partly cloudy 10 - - - -
27/02:00am 13.8 SSE 9 13 1028.4 - 0.0 - - 10 - - - -
27/01:30am 14.0 SE 9 13 1028.3 - 0.0 - - 10 - - - -
27/01:00am 14.4 SE 11 14 1028.4 - 0.0 - - 10 - - - -
27/12:30am 14.5 SE 11 14 1028.4 - 0.0 - - 10 - - - -
27/12:00am 14.7 SE 8 11 1028.7 - 0.0 - Partly cloudy 10 - - - -
 
Date/Time
CDT
Temp

°C
Wind Pressure Rain
since 9am
mm
Weather Cloud Vis
km
Sea
Height
m
Swell
Dir
 
Speed
knots
Gust
knots
hPa Trend Height
m
Period
s
Dir
26/11:30pm 15.2 SE 9 11 1028.9 - 0.0 - Partly cloudy 10 - - - -
26/11:00pm 15.4 S 10 14 1028.8 - 0.0 - Partly cloudy 10 - - - -
26/10:30pm 15.6 S 11 15 1028.8 - 0.0 - - 10 - - - -
26/10:00pm 15.7 S 13 18 1028.6 - 0.0 - - 10 - - - -
26/09:30pm 16.0 S 11 15 1028.4 - 0.0 - - 10 - - - -
26/09:00pm 16.0 S 12 17 1028.2 - 0.0 - - 10 - - - -
26/08:30pm 16.2 SSE 14 20 1027.9 - 0.0 - - 10 - - - -
26/08:00pm 16.6 SSE 16 21 1027.5 - 0.0 - - 10 - - - -
26/07:30pm 17.0 S 16 21 1027.3 - 0.0 - - 10 - - - -
26/07:00pm 17.8 SSE 17 21 1026.9 - 0.0 - - 10 - - - -
26/06:30pm 18.3 SE 18 25 1026.6 - 0.0 - - 10 - - - -
26/06:00pm 18.8 SSE 18 24 1026.4 - 0.0 - Mostly clear 10 - - - -
26/05:30pm 18.8 SE 17 24 1026.1 - 0.0 - Partly cloudy 10 - - - -
26/05:00pm 18.5 SE 18 24 1026.2 - 0.0 - Partly cloudy 10 - - - -
26/04:30pm 18.8 SE 18 24 1026.2 - 0.0 - Cloudy 10 - - - -
26/04:00pm 18.8 SE 15 24 1026.3 - 0.0 - Partly cloudy 10 - - - -
26/03:30pm 18.8 ESE 11 19 1026.7 - 0.0 - Partly cloudy 10 - - - -
26/03:00pm 18.2 SE 11 15 1027.0 - 0.0 - Cloudy 10 - - - -
26/02:30pm 18.5 SSE 17 22 1027.1 - 0.0 - Cloudy 10 - - - -
26/02:00pm 18.4 SE 12 16 1027.2 - 0.0 - Partly cloudy 10 - - - -
26/01:30pm 19.0 SE 11 16 1027.4 - 0.0 - Partly cloudy 10 - - - -
26/01:00pm 17.7 SE 9 13 1027.9 - 0.0 - Partly cloudy 10 - - - -
26/12:30pm 16.6 SE 10 14 1028.4 - 0.0 - Partly cloudy 10 - - - -
26/12:00pm 17.4 ESE 13 16 1028.3 - 0.0 - Mostly cloudy 10 - - - -
26/11:30am 17.9 E 8 13 1028.3 - 0.0 - Partly cloudy 10 - - - -
26/11:00am 17.0 ESE 10 14 1028.4 - 0.0 - Partly cloudy 10 - - - -
26/10:30am 16.5 S 11 19 1028.2 - 0.0 - Partly cloudy 10 - - - -
26/10:00am 15.0 SSE 12 15 1028.0 - 0.0 - Partly cloudy 10 - - - -
26/09:30am 15.5 SSW 8 10 1027.6 - 0.0 - Partly cloudy 10 - - - -
26/09:00am 13.0 SSE 5 8 1027.4 - 0.0 - Mostly clear 10 - - - -
26/08:30am 11.8 SSW 8 13 1026.9 - 0.0 - Partly cloudy 10 - - - -
26/08:00am 11.2 SW 11 13 1026.3 - 0.0 - - 10 - - - -
26/07:30am 10.7 SW 10 13 1026.2 - 0.0 - - 10 - - - -
26/07:00am 11.5 SW 13 15 1025.6 - 0.0 - Partly cloudy 10 - - - -
26/06:30am 12.1 SSW 12 16 1025.0 - 0.0 - - 10 - - - -
26/06:00am 11.8 SSW 6 10 1024.8 - 0.0 - - 10 - - - -
26/05:30am 11.4 SW 8 13 1024.5 - 0.0 - Partly cloudy 10 - - - -
26/05:00am 12.3 SW 12 16 1024.1 - 0.0 - - 10 - - - -
26/04:30am 12.1 SSW 11 13 1024.0 - 0.0 - Partly cloudy 10 - - - -

Other Formats:

Comma delimited format used in spreadsheet applications
http://www.bom.gov.au/fwo/IDS60701/IDS60701.95666.axf

JavaScript Object Notation format (JSON) in row-major order
http://www.bom.gov.au/fwo/IDS60701/IDS60701.95666.json